Time;durP1;ratioP1;P1;durP2;ratioP2;P2;SDS_P1;SDS_P2;PMS_P1;PMS_P2;Temp;Humidity;BMP_temperature;BMP_pressure;BME280_temperature;BME280_humidity;BME280_pressure;Samples;Min_cycle;Max_cycle;Signal;HPM_P1;HPM_P2
2023/07/17 00:01:21;;;;;;;14.23;5.72;;;;;;;18.56;100.00;101391.06;4989303;28;20482;-73
2023/07/17 00:03:47;;;;;;;9.98;5.85;;;;;;;18.47;100.00;101406.25;4986134;28;20030;-74
2023/07/17 00:06:12;;;;;;;13.32;5.82;;;;;;;18.40;100.00;101396.97;4988495;28;20043;-75
2023/07/17 00:08:38;;;;;;;12.98;5.85;;;;;;;18.39;100.00;101403.38;4979394;28;20061;-75
2023/07/17 00:11:03;;;;;;;10.00;5.43;;;;;;;18.52;100.00;101400.44;4984997;28;20125;-74
2023/07/17 00:13:29;;;;;;;10.38;5.85;;;;;;;18.65;100.00;101414.59;4978142;28;20027;-73
2023/07/17 00:15:54;;;;;;;11.68;5.05;;;;;;;18.65;100.00;101417.28;4981646;28;20489;-74
2023/07/17 00:18:20;;;;;;;13.52;5.97;;;;;;;18.44;100.00;101428.13;4991748;28;22566;-75
2023/07/17 00:20:45;;;;;;;12.73;6.35;;;;;;;18.64;100.00;101431.78;4986356;28;20809;-74
2023/07/17 00:23:11;;;;;;;11.82;6.35;;;;;;;18.65;100.00;101428.09;4985799;28;20042;-73
2023/07/17 00:25:37;;;;;;;10.63;6.57;;;;;;;18.44;100.00;101436.22;4979356;28;20125;-75
2023/07/17 00:28:02;;;;;;;10.63;5.97;;;;;;;18.46;100.00;101425.28;4979024;28;20043;-75
2023/07/17 00:30:28;;;;;;;10.98;6.32;;;;;;;18.45;100.00;101424.44;4988116;28;20366;-74
2023/07/17 00:32:54;;;;;;;13.18;5.93;;;;;;;18.32;100.00;101430.06;4981527;28;20039;-73
2023/07/17 00:35:20;;;;;;;10.55;6.28;;;;;;;18.27;100.00;101429.63;4980398;28;20058;-74
2023/07/17 00:37:46;;;;;;;11.32;6.40;;;;;;;18.13;100.00;101439.88;4984364;28;20085;-74
2023/07/17 00:40:12;;;;;;;15.10;7.38;;;;;;;18.21;100.00;101432.81;4991520;28;20039;-74
2023/07/17 00:42:38;;;;;;;12.07;6.38;;;;;;;18.20;100.00;101430.25;4992061;28;20045;-75
2023/07/17 00:45:05;;;;;;;11.77;6.28;;;;;;;18.28;100.00;101433.16;4982681;28;21000;-74
2023/07/17 00:47:31;;;;;;;10.63;5.43;;;;;;;18.32;100.00;101432.78;4988972;28;20038;-74
2023/07/17 00:50:00;;;;;;;17.55;6.25;;;;;;;18.27;100.00;101432.31;4984610;28;20042;-73
2023/07/17 00:52:27;;;;;;;9.38;5.88;;;;;;;18.24;100.00;101432.56;4979255;28;20038;-75
2023/07/17 00:54:53;;;;;;;12.38;6.35;;;;;;;18.16;100.00;101440.44;4994623;28;20031;-74
2023/07/17 00:57:19;;;;;;;12.00;7.15;;;;;;;18.23;100.00;101443.50;4975995;28;20035;-74
2023/07/17 00:59:46;;;;;;;11.05;5.82;;;;;;;18.22;100.00;101449.88;4994926;28;20916;-73
2023/07/17 01:02:13;;;;;;;13.40;6.07;;;;;;;18.13;100.00;101445.28;4990082;28;20621;-74
2023/07/17 01:04:45;;;;;;;10.48;6.13;;;;;;;18.00;100.00;101449.00;4989781;28;20031;-74
2023/07/17 01:07:14;;;;;;;13.43;6.20;;;;;;;17.97;100.00;101443.00;4980480;28;20113;-74
2023/07/17 01:09:40;;;;;;;11.55;6.25;;;;;;;17.89;100.00;101450.91;4975250;28;20046;-72
2023/07/17 01:12:06;;;;;;;13.38;7.30;;;;;;;17.76;100.00;101441.13;4977053;28;20031;-74
2023/07/17 01:14:32;;;;;;;11.43;6.07;;;;;;;17.76;100.00;101442.97;4982695;28;20034;-73
2023/07/17 01:16:58;;;;;;;9.15;6.82;;;;;;;17.79;100.00;101449.00;4979729;28;20319;-73
2023/07/17 01:19:23;;;;;;;10.05;6.03;;;;;;;17.39;100.00;101446.03;4987642;28;20042;-75
2023/07/17 01:21:55;;;;;;;13.57;6.18;;;;;;;17.70;100.00;101446.16;4985065;28;20039;-73
2023/07/17 01:24:20;;;;;;;16.00;6.67;;;;;;;17.61;100.00;101447.78;4988943;28;20101;-74
2023/07/17 01:26:46;;;;;;;9.35;5.70;;;;;;;17.67;100.00;101449.13;4995005;28;20782;-74
2023/07/17 01:29:12;;;;;;;11.27;6.60;;;;;;;17.48;100.00;101457.91;4983101;28;20042;-74
2023/07/17 01:31:38;;;;;;;9.13;6.20;;;;;;;17.56;100.00;101448.16;4986872;28;20039;-74
2023/07/17 01:34:04;;;;;;;11.88;5.97;;;;;;;17.38;100.00;101456.94;4994010;28;21019;-74
2023/07/17 01:36:29;;;;;;;12.15;6.55;;;;;;;17.48;100.00;101456.06;4983491;28;20130;-74
2023/07/17 01:38:56;;;;;;;13.10;6.25;;;;;;;17.41;100.00;101459.38;4984498;28;20039;-73
2023/07/17 01:41:23;;;;;;;9.90;6.10;;;;;;;17.32;100.00;101450.22;4978081;28;20349;-75
2023/07/17 01:43:48;;;;;;;10.77;6.00;;;;;;;17.50;100.00;101455.91;4980292;28;20042;-73
2023/07/17 01:46:14;;;;;;;10.68;5.90;;;;;;;17.44;100.00;101456.44;4974782;28;20049;-73
2023/07/17 01:48:42;;;;;;;11.35;5.88;;;;;;;17.49;100.00;101452.38;4995636;28;20037;-73
2023/07/17 01:51:08;;;;;;;12.43;6.10;;;;;;;17.48;100.00;101464.16;4986364;28;20468;-74
2023/07/17 01:53:33;;;;;;;14.77;6.43;;;;;;;17.31;100.00;101461.97;4977359;28;20070;-74
2023/07/17 01:56:00;;;;;;;15.60;6.07;;;;;;;17.30;100.00;101463.81;4977375;28;20030;-73
2023/07/17 01:58:26;;;;;;;9.98;5.72;;;;;;;17.34;100.00;101461.72;4971126;28;20035;-74
2023/07/17 02:00:54;;;;;;;14.02;6.03;;;;;;;17.19;100.00;101466.53;4985393;28;20041;-72
2023/07/17 02:03:19;;;;;;;14.27;6.47;;;;;;;17.24;100.00;101466.16;4988818;28;20126;-74
2023/07/17 02:05:45;;;;;;;16.17;6.30;;;;;;;17.13;100.00;101455.41;4986396;28;20042;-74
2023/07/17 02:08:11;;;;;;;12.98;6.07;;;;;;;17.15;100.00;101456.97;4983101;28;20043;-72
2023/07/17 02:10:40;;;;;;;16.00;5.93;;;;;;;17.23;100.00;101457.22;4984791;28;20133;-75
2023/07/17 02:13:09;;;;;;;10.27;5.55;;;;;;;16.91;100.00;101467.03;4987879;28;20042;-74
2023/07/17 02:15:35;;;;;;;12.25;6.72;;;;;;;17.11;100.00;101462.72;4996682;28;20042;-74
2023/07/17 02:18:01;;;;;;;11.35;5.82;;;;;;;17.07;100.00;101468.38;4973564;28;20046;-73
2023/07/17 02:20:27;;;;;;;12.30;5.82;;;;;;;17.09;100.00;101468.25;4984267;28;20037;-73
2023/07/17 02:22:54;;;;;;;13.80;7.20;;;;;;;16.99;100.00;101475.38;4996872;28;20062;-72
2023/07/17 02:25:19;;;;;;;10.95;6.25;;;;;;;16.98;100.00;101471.81;4984475;28;20045;-73
2023/07/17 02:27:45;;;;;;;10.13;6.53;;;;;;;17.00;100.00;101469.84;4988308;28;20045;-72
2023/07/17 02:30:11;;;;;;;10.85;6.22;;;;;;;17.00;100.00;101463.59;4989505;28;20101;-72
2023/07/17 02:32:36;;;;;;;10.38;6.28;;;;;;;16.83;100.00;101475.75;4972178;28;20552;-72
2023/07/17 02:35:02;;;;;;;13.70;6.72;;;;;;;16.80;100.00;101475.97;4971350;28;20078;-74
2023/07/17 02:37:28;;;;;;;14.65;6.72;;;;;;;16.69;100.00;101476.78;4986121;28;20081;-73
2023/07/17 02:39:54;;;;;;;15.73;7.22;;;;;;;16.69;100.00;101478.63;4985541;28;20821;-73
2023/07/17 02:42:20;;;;;;;15.73;6.97;;;;;;;16.78;100.00;101478.78;4984241;28;20031;-74
2023/07/17 02:44:46;;;;;;;13.75;6.82;;;;;;;16.83;100.00;101473.03;4982386;28;20035;-73
2023/07/17 02:47:11;;;;;;;13.57;6.70;;;;;;;16.79;100.00;101477.81;4978252;28;20062;-72
2023/07/17 02:49:41;;;;;;;13.43;7.65;;;;;;;16.69;100.00;101479.50;4994107;28;20039;-73
2023/07/17 02:52:07;;;;;;;10.52;6.75;;;;;;;16.69;100.00;101484.03;5008251;28;20043;-74
2023/07/17 02:54:34;;;;;;;13.30;7.45;;;;;;;16.53;100.00;101492.44;4992429;28;20125;-74
2023/07/17 02:56:59;;;;;;;13.45;6.15;;;;;;;16.54;100.00;101495.00;4981554;28;20299;-73
2023/07/17 02:59:25;;;;;;;12.65;6.95;;;;;;;16.61;100.00;101498.06;4978047;28;20038;-73
2023/07/17 03:01:50;;;;;;;12.18;6.60;;;;;;;16.60;100.00;101499.06;4985350;28;20787;-73
2023/07/17 03:04:16;;;;;;;15.60;6.85;;;;;;;16.52;100.00;101502.38;4995731;28;20875;-73
2023/07/17 03:06:41;;;;;;;15.50;6.72;;;;;;;16.26;100.00;101501.66;4982025;28;20168;-72
2023/07/17 03:09:07;;;;;;;13.15;6.63;;;;;;;16.37;100.00;101505.41;4975144;28;20037;-73
2023/07/17 03:11:34;;;;;;;13.13;7.18;;;;;;;16.48;100.00;101508.09;4979435;28;20031;-73
2023/07/17 03:14:01;;;;;;;12.27;6.60;;;;;;;16.10;100.00;101509.19;4973925;28;20038;-72
2023/07/17 03:16:26;;;;;;;15.40;8.15;;;;;;;16.10;100.00;101517.28;4976764;28;20039;-72
2023/07/17 03:18:52;;;;;;;12.63;6.78;;;;;;;16.27;100.00;101518.69;4994279;28;20094;-73
2023/07/17 03:21:19;;;;;;;16.67;7.40;;;;;;;16.25;100.00;101521.47;4984732;28;20034;-74
2023/07/17 03:23:44;;;;;;;18.05;7.70;;;;;;;16.35;100.00;101512.72;4987974;28;20046;-74
2023/07/17 03:26:10;;;;;;;16.63;8.18;;;;;;;16.31;100.00;101512.97;4987759;28;20041;-72
2023/07/17 03:28:35;;;;;;;13.52;6.45;;;;;;;16.27;100.00;101513.31;4993788;28;20050;-74
2023/07/17 03:31:01;;;;;;;11.93;7.65;;;;;;;16.14;100.00;101507.13;4997585;28;20927;-73
2023/07/17 03:33:27;;;;;;;16.67;7.00;;;;;;;16.19;100.00;101513.88;4989336;28;20034;-73
2023/07/17 03:35:52;;;;;;;15.90;8.05;;;;;;;16.32;100.00;101508.44;4992730;28;20515;-73
2023/07/17 03:38:18;;;;;;;19.52;7.75;;;;;;;16.30;100.00;101513.06;4984676;28;20042;-73
2023/07/17 03:40:43;;;;;;;13.52;7.10;;;;;;;16.24;100.00;101517.09;4984908;28;20031;-72
2023/07/17 03:43:09;;;;;;;15.07;6.78;;;;;;;16.22;100.00;101516.34;4992964;28;20039;-74
2023/07/17 03:45:34;;;;;;;16.73;7.47;;;;;;;16.23;100.00;101514.53;5003273;28;20113;-74
2023/07/17 03:48:01;;;;;;;17.30;7.18;;;;;;;16.27;100.00;101516.88;4978192;28;20054;-74
2023/07/17 03:50:30;;;;;;;16.15;7.25;;;;;;;16.35;100.00;101510.00;4975981;28;20039;-75
2023/07/17 03:52:56;;;;;;;13.00;7.07;;;;;;;16.15;100.00;101523.16;4996584;28;20125;-74
2023/07/17 03:55:21;;;;;;;17.58;7.45;;;;;;;16.28;100.00;101515.88;4996743;28;20117;-74
2023/07/17 03:57:47;;;;;;;14.23;6.90;;;;;;;16.30;100.00;101521.13;4996645;28;20039;-75
2023/07/17 04:00:13;;;;;;;14.75;7.30;;;;;;;16.31;100.00;101526.41;4995645;28;20039;-74
2023/07/17 04:02:42;;;;;;;14.82;7.85;;;;;;;16.48;100.00;101524.25;4995698;28;20042;-74
2023/07/17 04:05:15;;;;;;;17.35;7.55;;;;;;;17.12;100.00;101513.84;4986254;28;20043;-74
2023/07/17 04:07:41;;;;;;;13.30;7.22;;;;;;;17.21;100.00;101515.75;5010497;28;20034;-74
2023/07/17 04:10:07;;;;;;;14.05;6.60;;;;;;;17.79;100.00;101519.13;4999345;28;20806;-73
2023/07/17 04:12:33;;;;;;;13.93;7.13;;;;;;;18.19;100.00;101515.78;5000998;28;20039;-74
2023/07/17 04:14:59;;;;;;;15.73;6.28;;;;;;;18.37;100.00;101511.53;4998706;28;20600;-73
2023/07/17 04:17:24;;;;;;;15.40;7.05;;;;;;;19.05;100.00;101517.34;5008301;28;20519;-75
2023/07/17 04:19:50;;;;;;;17.55;7.57;;;;;;;19.57;100.00;101512.66;5020309;28;20065;-74
2023/07/17 04:22:17;;;;;;;19.83;7.55;;;;;;;19.53;100.00;101510.38;4996226;28;20026;-75
2023/07/17 04:24:43;;;;;;;14.05;6.40;;;;;;;19.37;100.00;101517.16;4988749;28;20035;-75
2023/07/17 04:27:09;;;;;;;14.18;6.80;;;;;;;19.85;100.00;101508.34;5009664;28;20054;-74
2023/07/17 04:29:35;;;;;;;14.05;6.90;;;;;;;20.76;94.52;101514.25;4996011;28;20182;-74
2023/07/17 04:32:03;;;;;;;16.83;6.88;;;;;;;21.08;88.87;101513.84;5000469;28;20142;-74
2023/07/17 04:34:30;;;;;;;12.43;7.00;;;;;;;20.60;89.62;101522.16;5014475;28;20055;-74
2023/07/17 04:36:56;;;;;;;13.20;6.30;;;;;;;21.67;84.75;101512.56;4995258;28;20053;-73
2023/07/17 04:39:23;;;;;;;12.55;6.22;;;;;;;22.38;80.56;101517.19;4995262;28;20027;-73
2023/07/17 04:41:49;;;;;;;7.68;5.10;;;;;;;22.77;77.20;101521.38;4998241;28;20725;-74
2023/07/17 04:44:17;;;;;;;10.77;4.93;;;;;;;22.44;74.80;101524.72;5004591;28;20702;-74
2023/07/17 04:46:43;;;;;;;9.90;5.15;;;;;;;23.33;72.93;101512.69;5001488;28;20741;-73
2023/07/17 04:49:09;;;;;;;12.07;4.97;;;;;;;23.17;72.28;101523.50;4979113;28;20037;-73
2023/07/17 04:51:35;;;;;;;10.43;4.60;;;;;;;24.02;69.27;101511.53;4996480;28;20361;-74
2023/07/17 04:54:00;;;;;;;11.85;4.63;;;;;;;24.53;65.89;101516.84;4993002;28;20050;-74
2023/07/17 04:56:26;;;;;;;7.22;4.35;;;;;;;24.44;65.31;101526.03;4995601;28;20037;-75
2023/07/17 04:58:53;;;;;;;13.85;5.68;;;;;;;23.56;67.79;101537.44;4984086;28;20054;-74
2023/07/17 05:01:19;;;;;;;10.57;4.85;;;;;;;22.84;69.87;101530.59;4976479;28;20027;-74
2023/07/17 05:03:45;;;;;;;13.45;5.97;;;;;;;22.42;71.76;101539.47;4976840;28;20314;-73
2023/07/17 05:06:10;;;;;;;13.10;4.78;;;;;;;22.92;71.48;101544.28;5005724;28;20049;-74
2023/07/17 05:08:36;;;;;;;22.85;6.20;;;;;;;21.55;76.32;101550.97;4987119;28;20093;-74
2023/07/17 05:11:02;;;;;;;16.23;5.43;;;;;;;22.20;74.48;101547.09;4996910;28;20035;-74
2023/07/17 05:13:33;;;;;;;13.55;6.13;;;;;;;22.44;72.90;101545.59;4978248;28;20118;-74
2023/07/17 05:16:00;;;;;;;11.25;5.93;;;;;;;22.22;73.94;101544.22;4979283;28;20034;-73
2023/07/17 05:18:25;;;;;;;9.98;5.13;;;;;;;22.14;75.46;101545.00;4994767;28;20035;-74
2023/07/17 05:20:51;;;;;;;11.63;5.53;;;;;;;21.72;78.64;101545.53;4990354;28;20030;-74
2023/07/17 05:23:18;;;;;;;12.68;5.65;;;;;;;21.85;79.00;101545.19;4995008;28;20043;-73
2023/07/17 05:25:58;;;;;;;11.23;5.63;;;;;;;21.91;79.33;101555.44;4979969;28;20034;-74
2023/07/17 05:28:25;;;;;;;12.52;5.47;;;;;;;21.07;79.88;101565.53;4974259;28;20034;-74
2023/07/17 05:30:52;;;;;;;12.13;5.95;;;;;;;21.24;80.37;101569.34;4995982;28;20034;-74
2023/07/17 05:33:18;;;;;;;16.40;5.95;;;;;;;21.65;76.95;101557.19;5000796;28;20141;-73
2023/07/17 05:35:45;;;;;;;11.13;6.07;;;;;;;21.80;76.89;101554.81;4992659;28;20038;-73
2023/07/17 05:38:11;;;;;;;15.77;6.07;;;;;;;21.90;78.54;101558.31;4972140;28;20069;-72
2023/07/17 05:40:39;;;;;;;9.52;6.72;;;;;;;21.82;79.59;101564.50;4981279;28;20299;-73
2023/07/17 05:43:05;;;;;;;9.48;5.75;;;;;;;22.28;74.10;101570.75;4982054;28;20034;-74
2023/07/17 05:45:32;;;;;;;16.98;6.97;;;;;;;22.32;72.67;101568.59;4977153;28;20042;-73
2023/07/17 05:47:58;;;;;;;15.27;6.57;;;;;;;22.63;70.57;101564.44;4995990;28;20052;-74
2023/07/17 05:50:24;;;;;;;16.60;6.90;;;;;;;22.99;69.54;101567.97;4973715;28;20038;-73
2023/07/17 05:52:50;;;;;;;12.68;6.55;;;;;;;21.99;70.92;101573.69;4985684;28;20038;-73
2023/07/17 05:55:16;;;;;;;16.92;7.03;;;;;;;22.48;70.20;101566.00;4978949;28;20746;-73
2023/07/17 05:57:41;;;;;;;15.20;6.85;;;;;;;22.52;70.77;101569.28;4983999;28;20039;-73
2023/07/17 06:00:12;;;;;;;14.50;6.18;;;;;;;23.17;68.38;101573.34;4981968;28;20045;-73
2023/07/17 06:02:41;;;;;;;13.35;6.90;;;;;;;23.14;68.02;101583.69;4985190;28;20039;-73
2023/07/17 06:05:08;;;;;;;12.00;7.38;;;;;;;23.44;66.35;101579.59;4991237;28;20242;-73
2023/07/17 06:07:34;;;;;;;13.88;7.40;;;;;;;23.19;66.69;101582.22;4983456;28;20065;-72
2023/07/17 06:09:59;;;;;;;12.50;7.32;;;;;;;23.29;66.52;101578.50;4974111;28;20043;-72
2023/07/17 06:12:25;;;;;;;15.13;7.10;;;;;;;23.08;67.41;101581.59;4980231;28;20532;-72
2023/07/17 06:14:51;;;;;;;14.13;7.22;;;;;;;22.63;69.06;101583.47;4975608;28;20463;-73
2023/07/17 06:17:16;;;;;;;16.23;8.82;;;;;;;22.45;69.05;101590.81;4972538;28;20037;-73
2023/07/17 06:19:43;;;;;;;16.80;7.45;;;;;;;23.14;67.02;101587.25;4983907;28;20037;-73
2023/07/17 06:22:08;;;;;;;19.80;8.45;;;;;;;23.88;65.30;101591.19;4992097;28;20089;-74
2023/07/17 06:24:34;;;;;;;21.67;8.85;;;;;;;22.96;66.36;101600.06;4983728;28;20149;-73
2023/07/17 06:26:59;;;;;;;19.38;9.18;;;;;;;23.08;66.10;101596.06;4980030;28;20995;-73
2023/07/17 06:29:25;;;;;;;17.98;8.32;;;;;;;23.16;66.84;101603.44;4986718;28;20054;-74
2023/07/17 06:31:51;;;;;;;19.33;8.38;;;;;;;22.97;66.51;101594.47;4979965;28;20070;-73
2023/07/17 06:34:18;;;;;;;19.65;8.52;;;;;;;23.49;64.50;101608.06;4980743;28;20038;-73
2023/07/17 06:36:44;;;;;;;21.63;9.43;;;;;;;23.28;64.42;101615.75;4987447;28;20118;-73
2023/07/17 06:39:11;;;;;;;18.52;8.60;;;;;;;23.13;65.01;101620.06;4979619;28;20045;-73
2023/07/17 06:41:36;;;;;;;20.45;8.95;;;;;;;23.35;64.73;101614.09;4980941;28;20051;-73
2023/07/17 06:44:02;;;;;;;16.55;8.95;;;;;;;22.90;65.80;101619.75;4978936;28;20051;-73
2023/07/17 06:46:28;;;;;;;18.67;8.93;;;;;;;22.48;67.06;101613.06;4982789;28;20042;-73
2023/07/17 06:48:53;;;;;;;16.90;8.63;;;;;;;23.06;66.93;101611.72;5004681;28;20922;-73
2023/07/17 06:51:19;;;;;;;16.83;8.75;;;;;;;23.00;66.62;101617.78;4984278;28;20038;-73
2023/07/17 06:53:44;;;;;;;15.88;9.15;;;;;;;22.98;66.33;101615.22;4985278;28;20920;-73
2023/07/17 06:56:11;;;;;;;24.00;9.45;;;;;;;23.02;66.73;101618.47;4979845;28;20035;-73
2023/07/17 06:58:36;;;;;;;20.90;9.98;;;;;;;22.58;66.40;101625.72;4978272;28;20034;-74
2023/07/17 07:01:03;;;;;;;23.63;9.00;;;;;;;22.74;67.31;101629.47;4996193;28;20723;-73
2023/07/17 07:03:29;;;;;;;24.00;9.43;;;;;;;22.89;67.55;101627.06;4985858;28;20041;-72
2023/07/17 07:06:00;;;;;;;19.15;9.02;;;;;;;22.71;67.56;101628.91;4979773;28;20101;-73
2023/07/17 07:08:27;;;;;;;21.88;9.20;;;;;;;22.88;67.74;101633.50;4983019;28;20502;-73
2023/07/17 07:10:54;;;;;;;18.08;8.40;;;;;;;22.70;66.85;101638.09;4979580;28;20043;-72
2023/07/17 07:13:20;;;;;;;19.02;8.80;;;;;;;22.95;67.53;101633.75;4977156;28;20125;-73
2023/07/17 07:15:47;;;;;;;20.67;8.55;;;;;;;23.11;65.80;101635.72;4974261;28;20026;-74
2023/07/17 07:18:13;;;;;;;19.13;8.75;;;;;;;22.65;66.35;101652.16;4987779;28;20031;-73
2023/07/17 07:20:38;;;;;;;17.95;9.55;;;;;;;22.70;67.59;101632.66;4991868;28;20480;-73
2023/07/17 07:23:04;;;;;;;20.30;9.18;;;;;;;22.52;68.04;101638.09;4977448;28;20822;-74
2023/07/17 07:25:29;;;;;;;18.63;8.77;;;;;;;22.69;68.73;101648.13;4991013;28;20198;-73
2023/07/17 07:27:55;;;;;;;14.80;8.10;;;;;;;22.43;68.37;101650.75;4982819;28;20808;-73
2023/07/17 07:30:20;;;;;;;19.55;9.52;;;;;;;23.42;67.25;101649.69;4988029;28;20227;-74
2023/07/17 07:32:47;;;;;;;28.25;9.45;;;;;;;23.43;66.89;101654.97;4981264;28;20122;-73
2023/07/17 07:35:13;;;;;;;20.63;8.98;;;;;;;23.47;66.42;101658.22;4979988;28;20033;-73
2023/07/17 07:37:39;;;;;;;23.33;8.18;;;;;;;23.17;66.56;101652.25;4991423;28;20483;-73
2023/07/17 07:40:09;;;;;;;17.85;8.68;;;;;;;22.45;68.47;101664.19;4982557;28;20042;-75
2023/07/17 07:42:35;;;;;;;17.77;8.60;;;;;;;22.66;69.43;101659.31;4998950;28;20043;-72
2023/07/17 07:45:00;;;;;;;15.82;7.45;;;;;;;23.05;67.49;101661.69;4987590;28;20113;-73
2023/07/17 07:47:26;;;;;;;21.48;7.68;;;;;;;22.88;67.58;101659.81;4993557;28;20030;-73
2023/07/17 07:49:51;;;;;;;17.85;8.18;;;;;;;23.19;65.83;101668.41;4990063;28;20042;-74
2023/07/17 07:52:17;;;;;;;17.20;7.50;;;;;;;22.75;67.63;101674.69;4981414;28;20043;-73
2023/07/17 07:54:45;;;;;;;15.52;7.30;;;;;;;22.75;69.07;101668.38;4987823;28;20040;-73
2023/07/17 07:57:11;;;;;;;16.23;7.45;;;;;;;23.18;67.23;101677.59;4987395;28;21021;-72
2023/07/17 07:59:36;;;;;;;20.02;8.75;;;;;;;23.48;66.21;101682.56;4990531;28;20035;-72
2023/07/17 08:02:02;;;;;;;16.30;7.72;;;;;;;23.41;65.46;101686.09;4997986;28;20022;-73
2023/07/17 08:04:28;;;;;;;15.60;7.35;;;;;;;23.44;64.60;101691.19;4991823;28;20038;-74
2023/07/17 08:06:55;;;;;;;16.63;7.45;;;;;;;22.33;66.55;101690.72;4993337;28;20054;-73
2023/07/17 08:09:20;;;;;;;16.92;7.70;;;;;;;21.88;67.06;101699.66;4993251;28;20022;-74
2023/07/17 08:11:46;;;;;;;15.98;7.40;;;;;;;22.64;67.05;101695.78;4998631;28;20039;-73
2023/07/17 08:14:11;;;;;;;13.90;7.40;;;;;;;23.22;65.07;101700.75;4985165;28;20039;-74
2023/07/17 08:16:37;;;;;;;23.60;7.90;;;;;;;23.09;64.97;101697.59;4985089;28;20137;-74
2023/07/17 08:19:02;;;;;;;17.90;7.10;;;;;;;22.87;65.06;101704.34;4990038;28;20114;-72
2023/07/17 08:21:28;;;;;;;14.68;6.93;;;;;;;22.69;64.27;101693.47;5001647;28;20057;-73
2023/07/17 08:23:53;;;;;;;19.83;7.47;;;;;;;23.03;64.74;101695.50;4994742;28;20042;-73
2023/07/17 08:26:19;;;;;;;18.20;6.68;;;;;;;23.59;64.09;101699.63;4990746;28;20043;-74
2023/07/17 08:28:45;;;;;;;15.68;6.80;;;;;;;23.55;63.72;101693.69;5006761;28;20827;-72
2023/07/17 08:31:10;;;;;;;15.85;6.22;;;;;;;23.42;63.03;101698.69;4991373;28;20041;-73
2023/07/17 08:33:36;;;;;;;13.65;6.63;;;;;;;23.32;62.23;101693.34;4992436;28;20082;-73
2023/07/17 08:36:02;;;;;;;16.00;6.40;;;;;;;23.57;62.89;101698.94;4986611;28;20073;-74
2023/07/17 08:38:28;;;;;;;10.40;5.75;;;;;;;23.77;63.19;101695.84;4995094;28;20077;-73
2023/07/17 08:40:53;;;;;;;14.85;5.80;;;;;;;23.15;64.37;101703.28;4994560;28;20043;-74
2023/07/17 08:43:23;;;;;;;17.02;7.20;;;;;;;24.04;63.92;101702.09;4989434;28;20031;-73
2023/07/17 08:45:50;;;;;;;13.57;6.82;;;;;;;24.24;61.11;101702.69;4991776;28;20046;-73
2023/07/17 08:48:16;;;;;;;11.32;5.70;;;;;;;24.53;60.66;101694.94;4985193;28;20069;-74
2023/07/17 08:50:42;;;;;;;10.75;5.00;;;;;;;24.78;57.36;101705.91;4997000;28;20038;-73
2023/07/17 08:53:10;;;;;;;19.98;5.88;;;;;;;25.38;58.17;101702.84;5008092;28;20161;-73
2023/07/17 08:55:35;;;;;;;12.55;5.68;;;;;;;25.44;57.75;101695.81;5004561;28;20035;-74
2023/07/17 08:58:03;;;;;;;16.02;6.30;;;;;;;25.08;58.58;101690.75;5003499;28;20049;-74
2023/07/17 09:00:31;;;;;;;12.77;5.65;;;;;;;25.37;59.41;101698.41;5011175;28;20431;-73
2023/07/17 09:02:57;;;;;;;15.23;5.93;;;;;;;25.10;57.33;101693.31;5012075;28;20406;-74
2023/07/17 09:05:23;;;;;;;16.25;6.35;;;;;;;25.03;59.37;101693.13;5016594;28;21058;-73
2023/07/17 09:07:49;;;;;;;15.20;6.22;;;;;;;25.25;58.00;101695.19;5016068;28;20058;-74
2023/07/17 09:10:19;;;;;;;11.38;5.60;;;;;;;25.23;58.96;101691.75;5016303;28;20039;-73
2023/07/17 09:12:49;;;;;;;12.80;5.90;;;;;;;24.85;58.17;101685.13;5012029;28;20159;-75
2023/07/17 09:15:15;;;;;;;13.82;5.82;;;;;;;24.67;57.79;101698.91;5006513;28;20030;-74
2023/07/17 09:17:42;;;;;;;11.43;5.78;;;;;;;24.26;58.23;101703.38;5009808;28;20031;-74
2023/07/17 09:20:13;;;;;;;13.77;5.70;;;;;;;23.74;58.74;101706.22;5011155;28;20039;-75
2023/07/17 09:22:39;;;;;;;10.73;5.47;;;;;;;24.14;60.02;101708.28;5030837;28;20042;-75
2023/07/17 09:25:09;;;;;;;10.98;5.22;;;;;;;24.86;61.37;101710.53;5030847;28;20039;-75
2023/07/17 09:27:45;;;;;;;12.90;5.82;;;;;;;25.02;58.97;101699.59;5024015;28;20042;-74
2023/07/17 09:30:13;;;;;;;14.05;5.97;;;;;;;24.86;59.20;101695.00;5013653;28;20054;-73
2023/07/17 09:32:39;;;;;;;12.75;5.25;;;;;;;24.84;58.47;101702.50;5015795;28;20046;-75
2023/07/17 09:35:06;;;;;;;12.23;5.18;;;;;;;24.31;56.32;101701.00;5023045;28;20030;-75
2023/07/17 09:37:34;;;;;;;11.05;5.30;;;;;;;24.48;56.00;101700.06;5013340;28;20047;-74
2023/07/17 09:40:00;;;;;;;11.07;4.90;;;;;;;24.81;55.74;101697.38;5022463;28;20209;-74
2023/07/17 09:42:26;;;;;;;11.73;4.68;;;;;;;25.11;55.60;101695.88;5011438;28;20062;-74
2023/07/17 09:44:53;;;;;;;9.10;4.50;;;;;;;25.27;54.75;101705.94;5016949;28;20030;-74
2023/07/17 09:47:19;;;;;;;12.88;4.65;;;;;;;25.47;55.60;101706.41;4998333;28;20043;-75
2023/07/17 09:49:48;;;;;;;9.50;4.20;;;;;;;25.25;53.55;101706.13;4998272;28;20034;-73
2023/07/17 09:52:14;;;;;;;11.68;5.15;;;;;;;25.21;54.91;101696.56;4993289;28;20038;-75
2023/07/17 09:54:42;;;;;;;9.75;4.30;;;;;;;24.83;53.04;101703.50;4995322;28;20042;-73
2023/07/17 09:57:09;;;;;;;9.60;3.95;;;;;;;25.28;52.01;101710.38;5001911;28;20125;-75
2023/07/17 09:59:41;;;;;;;13.65;4.70;;;;;;;25.81;51.91;101708.94;5007146;28;20043;-74
2023/07/17 10:02:15;;;;;;;10.65;4.28;;;;;;;25.32;53.25;101706.28;4994633;28;20050;-75
2023/07/17 10:04:50;;;;;;;10.73;4.93;;;;;;;24.78;54.06;101703.16;4986343;28;20030;-74
2023/07/17 10:07:18;;;;;;;10.00;4.35;;;;;;;24.50;54.96;101717.13;4980591;28;20047;-75
2023/07/17 10:09:47;;;;;;;11.27;4.50;;;;;;;23.69;57.29;101717.59;4990312;28;20039;-74
2023/07/17 10:12:13;;;;;;;11.38;4.63;;;;;;;23.83;57.56;101720.75;4991365;28;20038;-72
2023/07/17 10:14:39;;;;;;;13.20;4.30;;;;;;;24.32;56.45;101720.94;4980483;28;20039;-75
2023/07/17 10:17:04;;;;;;;10.80;4.78;;;;;;;25.29;53.85;101706.59;4981965;28;20050;-75
2023/07/17 10:19:44;;;;;;;12.23;4.95;;;;;;;25.60;53.49;101703.13;4981245;28;20218;-75
2023/07/17 10:22:14;;;;;;;11.55;4.82;;;;;;;25.58;52.22;101706.91;4980156;28;20034;-75
2023/07/17 10:24:42;;;;;;;12.48;4.47;;;;;;;25.35;53.54;101705.91;4975541;28;20066;-74
2023/07/17 10:27:08;;;;;;;11.68;4.45;;;;;;;25.44;54.81;101720.41;4978556;28;20046;-74
2023/07/17 10:29:44;;;;;;;10.73;4.65;;;;;;;25.57;55.01;101710.66;4997500;28;20551;-74
2023/07/17 10:32:12;;;;;;;12.63;4.43;;;;;;;25.32;56.44;101719.94;4984284;28;20039;-74
2023/07/17 10:34:49;;;;;;;13.02;4.50;;;;;;;24.75;56.68;101718.03;4979908;28;20031;-74
2023/07/17 10:37:40;;;;;;;12.40;4.78;;;;;;;24.91;55.63;101719.06;4983691;28;20065;-74
2023/07/17 10:40:07;;;;;;;12.07;5.15;;;;;;;24.81;54.94;101721.94;4974204;28;20055;-74
2023/07/17 10:42:34;;;;;;;10.52;4.53;;;;;;;24.10;58.59;101717.81;4983532;28;20034;-74
2023/07/17 10:45:09;;;;;;;14.25;4.82;;;;;;;23.62;56.63;101721.09;4984954;28;20518;-73
2023/07/17 10:47:35;;;;;;;10.00;4.60;;;;;;;23.63;56.76;101720.09;4978343;28;20178;-74
2023/07/17 10:50:05;;;;;;;10.25;4.95;;;;;;;23.73;57.12;101716.25;4985381;28;20241;-75
2023/07/17 10:52:36;;;;;;;12.38;4.78;;;;;;;23.66;56.65;101725.25;4980577;28;20234;-73
2023/07/17 10:55:03;;;;;;;8.70;4.25;;;;;;;24.41;55.73;101726.28;4976472;28;20075;-73
2023/07/17 10:57:29;;;;;;;14.35;5.38;;;;;;;24.77;56.13;101723.31;4981713;28;20133;-75
2023/07/17 10:59:56;;;;;;;10.50;4.88;;;;;;;25.51;53.71;101714.09;4985582;28;20030;-73
2023/07/17 11:02:25;;;;;;;8.35;4.55;;;;;;;25.29;53.74;101718.38;4978725;28;20069;-74
2023/07/17 11:04:58;;;;;;;11.32;4.85;;;;;;;25.71;51.77;101716.44;4974099;28;20031;-75
2023/07/17 11:07:24;;;;;;;8.60;4.22;;;;;;;25.76;50.42;101712.19;4983588;28;21180;-75
2023/07/17 11:09:50;;;;;;;9.35;4.60;;;;;;;25.69;51.08;101718.47;4987395;28;20046;-73
2023/07/17 11:12:19;;;;;;;10.75;4.70;;;;;;;24.87;52.14;101723.13;4984658;28;20562;-74